Time;durP1;ratioP1;P1;durP2;ratioP2;P2;SDS_P1;SDS_P2;PMS_P1;PMS_P2;Temp;Humidity;BMP_temperature;BMP_pressure;BME280_temperature;BME280_humidity;BME280_pressure;Samples;Min_cycle;Max_cycle;Signal;HPM_P1;HPM_P2
2021/11/09 00:02:29;;;;;;;19.90;8.53;;;;;;;7.32;100.00;101668.63;7396196;19;20428;-52
2021/11/09 00:05:04;;;;;;;24.93;7.13;;;;;;;7.14;100.00;101678.50;7404586;19;20420;-53
2021/11/09 00:07:38;;;;;;;28.90;7.63;;;;;;;6.92;100.00;101670.94;7395198;19;20424;-53
2021/11/09 00:10:09;;;;;;;28.63;7.30;;;;;;;6.81;100.00;101673.63;7403551;19;20402;-47
2021/11/09 00:12:41;;;;;;;27.93;7.67;;;;;;;6.78;100.00;101676.00;7395396;19;20438;-48
2021/11/09 00:15:13;;;;;;;20.07;7.80;;;;;;;6.78;100.00;101672.53;7404183;19;20376;-51
2021/11/09 00:17:42;;;;;;;22.20;7.73;;;;;;;6.78;100.00;101672.53;7397163;19;20426;-49
2021/11/09 00:20:18;;;;;;;26.30;8.30;;;;;;;6.86;100.00;101667.16;7402888;19;20415;-49
2021/11/09 00:22:48;;;;;;;21.23;7.83;;;;;;;6.78;100.00;101668.28;7398708;19;20429;-53
2021/11/09 00:25:18;;;;;;;24.27;8.00;;;;;;;6.80;100.00;101666.72;7403701;19;20397;-50
2021/11/09 00:27:48;;;;;;;18.13;7.23;;;;;;;6.79;100.00;101670.06;7396037;19;20436;-52
2021/11/09 00:30:20;;;;;;;25.97;9.47;;;;;;;6.70;100.00;101670.28;7402563;19;20436;-48
2021/11/09 00:32:49;;;;;;;24.23;8.83;;;;;;;6.67;100.00;101664.94;7395247;19;20487;-52
2021/11/09 00:35:25;;;;;;;27.90;10.00;;;;;;;6.66;100.00;101670.84;7403609;19;20718;-51
2021/11/09 00:37:56;;;;;;;27.23;8.90;;;;;;;6.60;100.00;101668.75;7399607;19;20876;-48
2021/11/09 00:40:28;;;;;;;25.10;7.90;;;;;;;6.55;100.00;101672.63;7403743;19;20421;-53
2021/11/09 00:42:58;;;;;;;25.53;7.50;;;;;;;6.53;100.00;101671.66;7396808;19;20473;-48
2021/11/09 00:45:30;;;;;;;24.13;6.43;;;;;;;6.53;100.00;101669.09;7398512;19;20876;-51
2021/11/09 00:47:59;;;;;;;25.97;7.80;;;;;;;6.47;100.00;101672.06;7393226;19;20734;-50
2021/11/09 00:50:32;;;;;;;23.37;7.97;;;;;;;6.51;100.00;101673.19;7398454;19;20412;-50
2021/11/09 00:53:03;;;;;;;26.20;6.40;;;;;;;6.48;100.00;101672.97;7393955;19;20443;-50
2021/11/09 00:55:33;;;;;;;30.83;7.33;;;;;;;6.53;100.00;101670.75;7399601;19;20775;-51
2021/11/09 00:58:02;;;;;;;17.27;6.80;;;;;;;6.53;100.00;101674.22;7392297;19;20417;-48
2021/11/09 01:00:34;;;;;;;17.80;6.20;;;;;;;6.53;100.00;101666.53;7398554;19;20847;-47
2021/11/09 01:03:05;;;;;;;21.83;6.30;;;;;;;6.51;100.00;101667.19;7391130;19;20446;-50
2021/11/09 01:05:38;;;;;;;20.00;6.63;;;;;;;6.48;100.00;101661.03;7399502;19;20399;-49
2021/11/09 01:08:09;;;;;;;20.20;6.47;;;;;;;6.51;100.00;101662.06;7395257;19;20483;-50
2021/11/09 01:10:41;;;;;;;14.27;6.10;;;;;;;6.53;100.00;101666.53;7398270;19;20842;-50
2021/11/09 01:13:11;;;;;;;17.57;6.77;;;;;;;6.55;100.00;101662.38;7391488;19;20920;-53
2021/11/09 01:15:48;;;;;;;20.63;7.27;;;;;;;6.54;100.00;101668.28;7404645;19;20421;-50
2021/11/09 01:18:20;;;;;;;22.30;6.60;;;;;;;6.58;100.00;101664.28;7395392;19;20475;-50
2021/11/09 01:20:53;;;;;;;19.63;6.93;;;;;;;6.74;100.00;101667.19;7403317;19;20394;-53
2021/11/09 01:23:23;;;;;;;26.43;5.80;;;;;;;6.71;100.00;101661.81;7394178;19;20424;-53
2021/11/09 01:25:54;;;;;;;26.50;6.97;;;;;;;6.62;100.00;101662.03;7399822;19;20385;-54
2021/11/09 01:28:24;;;;;;;20.40;6.10;;;;;;;6.57;100.00;101658.25;7391388;19;20436;-53
2021/11/09 01:30:54;;;;;;;19.40;6.63;;;;;;;6.60;100.00;101663.63;7399624;19;20411;-50
2021/11/09 01:33:23;;;;;;;17.03;6.40;;;;;;;6.59;100.00;101666.97;7398969;19;20465;-48
2021/11/09 01:35:56;;;;;;;22.13;6.83;;;;;;;6.58;100.00;101667.75;7399483;19;20394;-52
2021/11/09 01:38:25;;;;;;;21.23;5.90;;;;;;;6.66;100.00;101670.84;7392881;19;20421;-49
2021/11/09 01:40:56;;;;;;;19.90;5.30;;;;;;;6.63;100.00;101673.19;7399199;19;20401;-51
2021/11/09 01:43:27;;;;;;;26.47;6.87;;;;;;;6.65;100.00;101665.63;7391579;19;20427;-50
2021/11/09 01:45:57;;;;;;;19.27;4.90;;;;;;;6.84;100.00;101663.59;7399870;19;20843;-49
2021/11/09 01:48:28;;;;;;;18.77;6.10;;;;;;;6.88;100.00;101659.59;7392711;19;20861;-51
2021/11/09 01:51:02;;;;;;;21.07;5.63;;;;;;;7.02;100.00;101664.00;7400041;19;20416;-54
2021/11/09 01:53:32;;;;;;;22.70;6.60;;;;;;;7.27;100.00;101660.59;7395466;19;20695;-47
2021/11/09 01:56:03;;;;;;;17.30;5.00;;;;;;;7.99;100.00;101643.97;7399934;19;20423;-49
2021/11/09 01:58:33;;;;;;;18.27;4.57;;;;;;;7.26;100.00;101658.81;7392788;19;20413;-48
2021/11/09 02:01:06;;;;;;;13.57;4.40;;;;;;;7.12;100.00;101655.28;7399490;19;20421;-48
2021/11/09 02:03:37;;;;;;;15.23;5.20;;;;;;;7.05;100.00;101658.19;7390860;19;20902;-53
2021/11/09 02:06:10;;;;;;;20.10;6.63;;;;;;;7.02;100.00;101669.13;7400218;19;20392;-47
2021/11/09 02:08:40;;;;;;;38.13;10.00;;;;;;;7.08;100.00;101673.81;7396190;19;20425;-51
2021/11/09 02:11:10;;;;;;;16.93;5.10;;;;;;;6.85;100.00;101677.31;7399643;19;20415;-49
2021/11/09 02:13:40;;;;;;;22.43;8.70;;;;;;;6.96;100.00;101678.06;7390952;19;20762;-48
2021/11/09 02:16:10;;;;;;;15.87;4.90;;;;;;;6.83;100.00;101682.31;7400394;19;20699;-47
2021/11/09 02:18:39;;;;;;;19.33;4.00;;;;;;;6.76;100.00;101680.09;7392114;19;20412;-47
2021/11/09 02:21:13;;;;;;;20.70;4.60;;;;;;;6.70;100.00;101684.78;7396659;19;20457;-50
2021/11/09 02:23:46;;;;;;;16.17;3.90;;;;;;;6.70;100.00;101684.78;7394338;19;20448;-51
2021/11/09 02:26:17;;;;;;;20.57;5.70;;;;;;;6.67;100.00;101684.56;7397383;19;20890;-49
2021/11/09 02:28:48;;;;;;;18.30;4.83;;;;;;;6.69;100.00;101680.44;7391840;19;20904;-49
2021/11/09 02:31:18;;;;;;;20.83;5.60;;;;;;;6.68;100.00;101687.25;7399547;19;20397;-49
2021/11/09 02:33:48;;;;;;;20.33;4.67;;;;;;;6.66;100.00;101686.22;7390417;19;20450;-51
2021/11/09 02:36:21;;;;;;;22.20;5.90;;;;;;;6.68;100.00;101697.53;7399283;19;20386;-48
2021/11/09 02:38:51;;;;;;;20.23;5.50;;;;;;;6.68;100.00;101696.59;7399421;19;20445;-49
2021/11/09 02:41:21;;;;;;;23.23;5.97;;;;;;;6.72;100.00;101691.81;7397792;19;20417;-52
2021/11/09 02:43:52;;;;;;;19.70;4.10;;;;;;;6.65;100.00;101696.41;7389458;19;20923;-50
2021/11/09 02:49:21;;;;;;;23.50;7.30;;;;;;;6.69;100.00;101709.56;7396200;19;20421;-52
2021/11/09 02:51:57;;;;;;;20.37;7.00;;;;;;;6.71;100.00;101707.97;7398876;19;20395;-52
2021/11/09 02:54:30;;;;;;;14.17;5.27;;;;;;;6.71;100.00;101718.25;7399116;19;20392;-51
2021/11/09 02:57:01;;;;;;;22.83;4.93;;;;;;;6.68;100.00;101723.16;7390335;19;20747;-50
2021/11/09 02:59:51;;;;;;;13.37;4.13;;;;;;;6.66;100.00;101724.69;7398052;19;20382;-48
2021/11/09 03:02:31;;;;;;;24.23;4.87;;;;;;;6.65;100.00;101729.75;7391226;19;20500;-49
2021/11/09 03:05:06;;;;;;;15.07;4.00;;;;;;;6.66;100.00;101734.09;7398661;19;20398;-54
2021/11/09 03:07:41;;;;;;;12.03;4.30;;;;;;;6.68;100.00;101740.22;7397499;19;20698;-50
2021/11/09 03:10:20;;;;;;;20.07;5.40;;;;;;;6.70;100.00;101731.84;7409557;19;20664;-51
2021/11/09 03:12:50;;;;;;;12.87;5.20;;;;;;;6.72;100.00;101730.28;7396320;19;20425;-52
2021/11/09 03:15:25;;;;;;;19.07;5.57;;;;;;;6.69;100.00;101731.72;7406194;19;20394;-53
2021/11/09 03:17:57;;;;;;;26.30;4.20;;;;;;;6.60;100.00;101735.41;7398386;19;20428;-52
2021/11/09 03:20:33;;;;;;;20.10;4.53;;;;;;;6.67;100.00;101735.88;7408025;19;20461;-52
2021/11/09 03:45:00;;;;;;;13.60;4.10;;;;;;;6.71;100.00;101748.13;7405005;19;20652;-50
2021/11/09 03:47:32;;;;;;;27.27;4.90;;;;;;;6.69;100.00;101749.69;7397687;19;20414;-53
2021/11/09 03:50:02;;;;;;;11.30;3.70;;;;;;;6.69;100.00;101754.81;7404470;19;20420;-48
2021/11/09 03:52:39;;;;;;;23.30;5.70;;;;;;;6.68;100.00;101764.19;7400128;19;20487;-49
2021/11/09 03:55:22;;;;;;;22.40;5.20;;;;;;;6.64;100.00;101763.84;7404851;19;20390;-51
2021/11/09 03:58:02;;;;;;;16.90;4.93;;;;;;;6.74;100.00;101759.53;7397306;19;20745;-47
2021/11/09 04:00:34;;;;;;;20.83;5.37;;;;;;;6.66;100.00;101762.31;7402880;19;20396;-48
2021/11/09 04:03:11;;;;;;;24.50;5.00;;;;;;;6.66;100.00;101755.47;7398461;19;20427;-54
2021/11/09 04:05:45;;;;;;;17.53;5.20;;;;;;;6.72;100.00;101767.88;7404605;19;20411;-48
2021/11/09 04:08:28;;;;;;;14.30;4.03;;;;;;;6.67;100.00;101756.38;7396287;19;20480;-50
2021/11/09 04:11:06;;;;;;;25.53;6.07;;;;;;;6.71;100.00;101763.50;7403618;19;20456;-48
2021/11/09 04:13:40;;;;;;;18.63;5.20;;;;;;;6.68;100.00;101761.63;7394715;19;20423;-47
2021/11/09 04:16:26;;;;;;;23.03;5.90;;;;;;;6.73;100.00;101760.28;7404211;19;20405;-49
2021/11/09 04:19:04;;;;;;;31.87;6.57;;;;;;;6.80;100.00;101759.06;7393079;19;20720;-46
2021/11/09 04:21:50;;;;;;;16.63;4.70;;;;;;;6.83;100.00;101756.72;7398743;19;20395;-51
2021/11/09 04:30:05;;;;;;;26.73;6.13;;;;;;;6.76;100.00;101764.75;7403125;19;20394;-51
2021/11/09 05:08:15;;;;;;;19.43;7.53;;;;;;;6.70;100.00;101783.16;7394712;19;20416;-49
2021/11/09 05:08:44;;;;;;;18.03;8.30;;;;;;;6.69;100.00;101776.25;7397581;19;20437;-49
2021/11/09 05:11:14;;;;;;;24.97;8.00;;;;;;;6.67;100.00;101776.91;7401620;19;20458;-48
2021/11/09 05:13:44;;;;;;;22.80;7.90;;;;;;;6.64;100.00;101776.66;7393292;19;20890;-46
2021/11/09 05:16:16;;;;;;;20.20;7.83;;;;;;;6.58;100.00;101779.69;7403585;19;20844;-47
2021/11/09 05:18:46;;;;;;;27.13;7.50;;;;;;;6.50;100.00;101779.09;7394834;19;20749;-49
2021/11/09 05:21:15;;;;;;;18.17;7.50;;;;;;;6.51;100.00;101780.88;7400306;19;20460;-48
2021/11/09 05:23:45;;;;;;;15.17;6.87;;;;;;;6.46;100.00;101783.09;7396458;19;20435;-48
2021/11/09 05:26:15;;;;;;;21.47;8.50;;;;;;;6.53;100.00;101792.16;7401792;19;20393;-49
2021/11/09 05:28:45;;;;;;;26.40;8.47;;;;;;;6.47;100.00;101794.25;7392581;19;20680;-48
2021/11/09 05:31:18;;;;;;;17.57;8.27;;;;;;;6.44;100.00;101799.16;7400952;19;20402;-49
2021/11/09 05:33:52;;;;;;;18.87;6.33;;;;;;;6.39;100.00;101808.16;7392289;19;20459;-50
2021/11/09 05:36:22;;;;;;;17.53;8.40;;;;;;;6.39;100.00;101805.59;7401468;19;20411;-48
2021/11/09 05:38:55;;;;;;;20.57;7.73;;;;;;;6.39;100.00;101805.59;7397076;19;20430;-48
2021/11/09 05:41:30;;;;;;;19.27;7.50;;;;;;;6.40;100.00;101807.41;7400616;19;20388;-49
2021/11/09 05:43:59;;;;;;;14.10;7.53;;;;;;;6.38;100.00;101816.63;7398775;19;20685;-49
2021/11/09 05:46:31;;;;;;;20.70;7.17;;;;;;;6.39;100.00;101816.75;7400958;19;20390;-48
2021/11/09 05:49:01;;;;;;;21.50;7.00;;;;;;;6.39;100.00;101823.53;7402190;19;20493;-48
2021/11/09 05:51:30;;;;;;;21.70;7.60;;;;;;;6.39;100.00;101831.22;7401025;19;20714;-48
2021/11/09 05:54:00;;;;;;;13.17;7.60;;;;;;;6.39;100.00;101832.13;7398368;19;20409;-50
2021/11/09 05:56:30;;;;;;;16.27;8.23;;;;;;;6.38;100.00;101832.00;7400769;19;20389;-49
2021/11/09 05:59:00;;;;;;;24.67;8.50;;;;;;;6.40;100.00;101838.16;7397619;19;20419;-52
2021/11/09 06:01:33;;;;;;;22.40;8.13;;;;;;;6.39;100.00;101839.81;7399826;19;20467;-47
2021/11/09 06:04:02;;;;;;;20.30;7.70;;;;;;;6.41;100.00;101852.78;7398128;19;20719;-51
2021/11/09 06:06:32;;;;;;;18.37;7.87;;;;;;;6.38;100.00;101849.94;7400522;19;20457;-48
2021/11/09 06:09:01;;;;;;;23.33;7.50;;;;;;;6.42;100.00;101846.84;7398771;19;20476;-49
2021/11/09 06:11:31;;;;;;;15.57;7.50;;;;;;;6.43;100.00;101849.56;7400260;19;20389;-49
2021/11/09 06:14:00;;;;;;;16.53;6.90;;;;;;;6.42;100.00;101852.84;7397772;19;20418;-50
2021/11/09 06:16:32;;;;;;;19.67;7.20;;;;;;;6.45;100.00;101849.63;7400319;19;20459;-48
2021/11/09 06:19:02;;;;;;;13.03;8.17;;;;;;;6.44;100.00;101850.41;7398668;19;20867;-50
2021/11/09 06:21:31;;;;;;;15.93;7.87;;;;;;;6.44;100.00;101850.41;7403082;19;20408;-50
2021/11/09 06:24:00;;;;;;;19.83;7.80;;;;;;;6.48;100.00;101852.44;7397248;19;20428;-53
2021/11/09 06:26:30;;;;;;;16.33;8.20;;;;;;;6.48;100.00;101852.44;7399951;19;20410;-49
2021/11/09 06:29:06;;;;;;;22.23;7.80;;;;;;;6.47;100.00;101860.94;7398055;19;20425;-50
2021/11/09 06:31:38;;;;;;;16.93;8.63;;;;;;;6.53;100.00;101855.34;7392212;19;20405;-50
2021/11/09 06:34:07;;;;;;;24.07;9.50;;;;;;;6.57;100.00;101855.69;7399314;19;20448;-53
2021/11/09 06:36:37;;;;;;;21.03;8.70;;;;;;;6.55;100.00;101870.09;7396302;19;20438;-50
2021/11/09 06:39:09;;;;;;;27.10;11.13;;;;;;;6.58;100.00;101872.00;7398471;19;20410;-53
2021/11/09 06:41:39;;;;;;;25.33;9.33;;;;;;;6.60;100.00;101873.91;7389870;19;20400;-50
2021/11/09 06:44:09;;;;;;;22.90;9.80;;;;;;;6.59;100.00;101868.66;7398875;19;20448;-54
2021/11/09 06:46:41;;;;;;;34.43;10.47;;;;;;;6.59;100.00;101884.03;7391870;19;20457;-53
2021/11/09 06:49:11;;;;;;;19.10;9.90;;;;;;;6.59;100.00;101872.13;7397834;19;20381;-52
2021/11/09 06:51:41;;;;;;;23.53;10.00;;;;;;;6.62;100.00;101872.34;7394814;19;20459;-49
2021/11/09 06:54:10;;;;;;;20.10;9.83;;;;;;;6.66;100.00;101877.72;7400991;19;20474;-53
2021/11/09 06:56:40;;;;;;;22.00;9.80;;;;;;;6.66;100.00;101870.88;7391671;19;20382;-52
2021/11/09 06:59:09;;;;;;;23.30;11.00;;;;;;;6.72;100.00;101873.03;7397522;19;20400;-53
2021/11/09 07:01:43;;;;;;;20.07;10.30;;;;;;;6.75;100.00;101868.13;7391583;19;20413;-51
2021/11/09 07:04:12;;;;;;;20.07;11.17;;;;;;;6.76;100.00;101867.34;7399251;19;20381;-52
2021/11/09 07:06:42;;;;;;;24.17;10.80;;;;;;;6.81;100.00;101853.19;7395123;19;20387;-52
2021/11/09 07:09:11;;;;;;;23.00;10.57;;;;;;;6.81;100.00;101858.34;7400319;19;20480;-52
2021/11/09 07:11:41;;;;;;;20.57;9.40;;;;;;;6.82;100.00;101859.25;7391457;19;20410;-52
2021/11/09 07:14:11;;;;;;;17.67;9.53;;;;;;;6.78;100.00;101858.13;7398001;19;20390;-52
2021/11/09 07:16:44;;;;;;;31.07;14.30;;;;;;;7.64;100.00;101852.31;7390739;19;20433;-53
2021/11/09 07:19:15;;;;;;;33.27;16.30;;;;;;;8.26;100.00;101849.69;7401351;19;20675;-52
2021/11/09 07:21:45;;;;;;;21.83;10.73;;;;;;;7.94;100.00;101851.78;7394293;19;20658;-53
2021/11/09 07:24:15;;;;;;;20.33;9.30;;;;;;;7.53;100.00;101858.34;7397862;19;20387;-53
2021/11/09 07:26:45;;;;;;;19.83;9.73;;;;;;;7.33;100.00;101862.06;7390886;19;20399;-46
2021/11/09 07:29:14;;;;;;;22.63;9.33;;;;;;;7.22;100.00;101867.31;7396810;19;20407;-47
2021/11/09 07:31:46;;;;;;;18.20;8.87;;;;;;;7.09;100.00;101874.88;7389881;19;20395;-47
2021/11/09 07:34:16;;;;;;;28.13;10.10;;;;;;;7.00;100.00;101877.66;7397611;19;20380;-47
2021/11/09 07:36:45;;;;;;;24.40;10.67;;;;;;;7.09;100.00;101891.19;7394901;19;20395;-48
2021/11/09 07:39:15;;;;;;;15.67;9.30;;;;;;;7.06;100.00;101893.50;7396960;19;20451;-47
2021/11/09 07:41:46;;;;;;;20.20;10.20;;;;;;;7.15;100.00;101894.22;7390859;19;20390;-48
2021/11/09 07:44:16;;;;;;;20.90;10.50;;;;;;;7.06;100.00;101895.19;7401589;19;20458;-47
2021/11/09 07:46:48;;;;;;;16.60;9.93;;;;;;;7.07;100.00;101897.88;7390555;19;20717;-47
2021/11/09 07:49:18;;;;;;;18.37;9.97;;;;;;;7.01;100.00;101898.31;7396764;19;20645;-47
2021/11/09 07:51:48;;;;;;;20.73;11.10;;;;;;;7.05;100.00;101904.56;7394462;19;20458;-46
2021/11/09 07:54:18;;;;;;;42.77;19.70;;;;;;;7.10;100.00;101897.19;7402142;19;20717;-46
2021/11/09 07:56:48;;;;;;;20.70;9.60;;;;;;;7.08;100.00;101898.78;7397909;19;20969;-48
2021/11/09 07:59:29;;;;;;;24.93;12.33;;;;;;;7.08;100.00;101899.66;7403914;19;20399;-51
2021/11/09 08:02:04;;;;;;;24.40;11.60;;;;;;;7.09;100.00;101908.25;7396830;19;20459;-48
2021/11/09 08:04:43;;;;;;;21.80;11.57;;;;;;;7.09;100.00;101911.72;7401458;19;20706;-52
2021/11/09 08:07:16;;;;;;;22.60;11.50;;;;;;;7.15;100.00;101916.41;7403748;19;20695;-48
2021/11/09 08:09:46;;;;;;;29.93;12.57;;;;;;;7.18;100.00;101923.44;7406725;19;20453;-47
2021/11/09 08:12:15;;;;;;;25.33;12.33;;;;;;;7.27;100.00;101918.97;7396243;19;20420;-47
2021/11/09 08:14:45;;;;;;;23.77;11.97;;;;;;;7.31;100.00;101923.56;7403864;19;20457;-51
2021/11/09 08:17:17;;;;;;;24.03;11.23;;;;;;;7.34;100.00;101934.06;7396721;19;20421;-46
2021/11/09 08:19:47;;;;;;;26.37;11.63;;;;;;;7.42;100.00;101929.47;7402912;19;20458;-49
2021/11/09 08:22:16;;;;;;;22.17;11.07;;;;;;;7.50;100.00;101930.06;7400596;19;20481;-48
2021/11/09 08:24:46;;;;;;;25.77;11.53;;;;;;;7.50;100.00;101927.50;7403123;19;20398;-52
2021/11/09 08:27:15;;;;;;;57.50;20.53;;;;;;;7.55;100.00;101923.59;7398515;19;20447;-47
2021/11/09 08:29:49;;;;;;;19.67;9.53;;;;;;;7.50;100.00;101930.06;7402553;19;20403;-46
2021/11/09 08:32:22;;;;;;;13.23;7.43;;;;;;;7.53;100.00;101948.25;7395864;19;20426;-46
2021/11/09 08:34:51;;;;;;;17.73;9.17;;;;;;;7.61;100.00;101948.81;7403238;19;20713;-48
2021/11/09 08:37:22;;;;;;;18.40;8.27;;;;;;;7.65;100.00;101944.00;7397154;19;20498;-45
2021/11/09 08:39:51;;;;;;;17.83;8.13;;;;;;;7.64;100.00;101949.94;7406307;19;20394;-48
2021/11/09 08:42:24;;;;;;;14.60;5.97;;;;;;;7.66;100.00;101942.34;7395213;19;20862;-47
2021/11/09 08:45:01;;;;;;;21.20;8.00;;;;;;;7.75;100.00;101947.25;7402823;19;20706;-46
2021/11/09 08:47:37;;;;;;;25.60;8.70;;;;;;;7.73;100.00;101959.09;7398137;19;20502;-47
2021/11/09 08:50:08;;;;;;;30.37;7.03;;;;;;;7.69;100.00;101957.97;7402337;19;20459;-45
2021/11/09 08:52:38;;;;;;;19.87;6.93;;;;;;;7.75;100.00;101957.53;7395519;19;20448;-46
2021/11/09 08:55:22;;;;;;;28.03;8.73;;;;;;;7.72;100.00;101962.44;7402070;19;20463;-49
2021/11/09 09:01:15;;;;;;;35.03;11.00;;;;;;;7.81;100.00;101958.84;7399683;19;20421;-50
2021/11/09 09:06:30;;;;;;;34.30;11.83;;;;;;;7.84;100.00;101971.94;7400840;19;20848;-49
2021/11/09 09:09:01;;;;;;;24.47;11.00;;;;;;;7.84;100.00;101978.75;7404038;19;20533;-48
2021/11/09 09:11:30;;;;;;;20.37;8.10;;;;;;;7.87;100.00;101978.97;7402005;19;20424;-47
2021/11/09 09:14:00;;;;;;;29.93;10.67;;;;;;;7.95;100.00;101980.41;7403451;19;20468;-47
2021/11/09 09:16:31;;;;;;;22.80;9.50;;;;;;;8.01;100.00;101991.94;7402082;19;20398;-46
2021/11/09 09:19:05;;;;;;;25.03;9.70;;;;;;;8.05;100.00;101988.81;7400383;19;20410;-48
2021/11/09 09:21:39;;;;;;;23.73;10.07;;;;;;;8.02;100.00;101993.72;7396862;19;20410;-51
2021/11/09 09:24:16;;;;;;;24.77;10.90;;;;;;;8.08;100.00;102004.44;7399718;19;20656;-46
2021/11/09 09:26:51;;;;;;;26.90;10.37;;;;;;;8.08;100.00;101996.72;7396264;19;20895;-52
2021/11/09 09:32:47;;;;;;;30.47;11.87;;;;;;;8.22;100.00;102002.84;7393213;19;20407;-50
2021/11/09 09:54:41;;;;;;;27.80;10.20;;;;;;;8.31;100.00;102018.06;7405342;19;20450;-47
2021/11/09 09:57:11;;;;;;;29.10;11.50;;;;;;;8.44;100.00;102015.56;7393302;19;20419;-48
2021/11/09 09:59:43;;;;;;;22.67;11.30;;;;;;;8.46;100.00;102025.97;7400001;19;20452;-47
2021/11/09 10:02:15;;;;;;;29.27;10.67;;;;;;;8.40;100.00;102026.41;7392482;19;20439;-47
2021/11/09 10:04:47;;;;;;;25.80;10.90;;;;;;;8.46;100.00;102023.38;7398898;19;20387;-48
2021/11/09 10:07:30;;;;;;;32.10;11.97;;;;;;;8.62;100.00;102010.84;7396456;19;20478;-47
2021/11/09 10:10:00;;;;;;;30.50;11.70;;;;;;;8.70;100.00;102023.34;7399743;19;20452;-51
2021/11/09 10:12:33;;;;;;;11.17;5.70;;;;;;;8.72;100.00;102022.66;7392737;19;20452;-51
2021/11/09 10:15:08;;;;;;;32.60;11.50;;;;;;;8.70;100.00;102024.25;7400025;19;20400;-48
2021/11/09 10:17:38;;;;;;;30.27;11.23;;;;;;;8.76;100.00;102024.66;7388788;19;20424;-47
2021/11/09 10:20:13;;;;;;;26.07;11.53;;;;;;;8.76;100.00;102019.53;7399150;19;20643;-51
2021/11/09 10:22:47;;;;;;;20.90;8.73;;;;;;;8.69;100.00;102027.59;7394834;19;20422;-52
2021/11/09 10:25:18;;;;;;;34.13;10.53;;;;;;;8.72;100.00;102019.22;7397221;19;20646;-46
2021/11/09 10:27:50;;;;;;;39.27;13.30;;;;;;;8.83;100.00;102019.94;7391665;19;20488;-47
2021/11/09 10:30:24;;;;;;;41.50;11.97;;;;;;;8.87;100.00;102016.81;7398862;19;20466;-50
2021/11/09 10:32:54;;;;;;;24.83;10.70;;;;;;;8.98;100.00;102020.97;7391388;19;20452;-50
2021/11/09 10:35:25;;;;;;;41.07;16.77;;;;;;;8.99;100.00;102027.94;7403909;19;20400;-51
2021/11/09 10:37:58;;;;;;;43.43;14.27;;;;;;;9.12;100.00;102021.06;7396310;19;20746;-53
2021/11/09 10:40:30;;;;;;;23.27;9.10;;;;;;;9.11;100.00;102035.59;7398859;19;20848;-50
2021/11/09 10:43:02;;;;;;;32.03;10.23;;;;;;;9.14;100.00;102037.50;7390780;19;20413;-49
2021/11/09 10:45:34;;;;;;;28.03;10.97;;;;;;;9.31;100.00;102031.81;7400146;19;20408;-45
2021/11/09 10:48:06;;;;;;;25.93;9.93;;;;;;;9.09;100.00;102039.75;7391968;19;20415;-46
2021/11/09 10:50:37;;;;;;;24.43;9.70;;;;;;;9.13;100.00;102040.88;7398444;19;20392;-48
2021/11/09 10:53:14;;;;;;;25.30;8.30;;;;;;;9.14;100.00;102047.78;7393366;19;20415;-50
2021/11/09 10:55:58;;;;;;;24.67;8.03;;;;;;;9.22;100.00;102056.06;7398885;19;20443;-47
2021/11/09 10:58:42;;;;;;;25.33;8.70;;;;;;;9.24;100.00;102045.06;7391345;19;20508;-49
2021/11/09 11:04:03;;;;;;;22.90;7.67;;;;;;;9.26;100.00;102043.47;7388935;19;20709;-46
2021/11/09 11:06:34;;;;;;;27.03;9.73;;;;;;;9.39;100.00;102040.03;7396677;19;20402;-50
2021/11/09 11:09:20;;;;;;;20.40;9.20;;;;;;;9.51;100.00;102045.13;7401868;19;20431;-47
2021/11/09 11:12:09;;;;;;;33.17;7.57;;;;;;;9.41;100.00;102047.88;7390462;19;20733;-45
2021/11/09 11:14:41;;;;;;;24.77;9.03;;;;;;;9.58;100.00;102052.47;7398583;19;20383;-48
2021/11/09 11:17:12;;;;;;;30.73;8.63;;;;;;;9.43;100.00;102054.00;7390275;19;20889;-45
2021/11/09 11:19:43;;;;;;;19.93;7.37;;;;;;;9.55;100.00;102046.22;7397151;19;20648;-46
2021/11/09 11:22:14;;;;;;;23.30;6.07;;;;;;;9.58;100.00;102052.47;7393026;19;20871;-46
2021/11/09 11:24:48;;;;;;;17.50;5.83;;;;;;;9.51;100.00;102049.38;7397093;19;20410;-48
2021/11/09 11:27:19;;;;;;;13.47;5.13;;;;;;;9.62;100.00;102045.84;7390668;19;20495;-49
2021/11/09 11:29:49;;;;;;;24.23;8.23;;;;;;;9.76;100.00;102044.19;7403512;19;20909;-49
2021/11/09 11:32:21;;;;;;;15.20;5.10;;;;;;;9.67;100.00;102059.03;7396993;19;20871;-49
2021/11/09 11:34:50;;;;;;;18.57;7.30;;;;;;;9.71;100.00;102056.75;7407813;19;20459;-46
2021/11/09 11:37:22;;;;;;;23.40;7.60;;;;;;;9.99;100.00;102040.50;7399930;19;20826;-50
2021/11/09 11:39:59;;;;;;;28.67;7.27;;;;;;;10.11;100.00;102053.28;7409246;19;20424;-50
2021/11/09 11:42:29;;;;;;;21.43;6.70;;;;;;;10.00;100.00;102062.00;7397992;19;20785;-47
2021/11/09 11:45:00;;;;;;;27.37;6.17;;;;;;;10.04;100.00;102048.53;7403276;19;20376;-48
2021/11/09 11:47:30;;;;;;;14.77;4.50;;;;;;;10.07;100.00;102050.44;7397032;19;20423;-46
2021/11/09 11:50:01;;;;;;;25.17;7.00;;;;;;;10.16;100.00;102052.72;7404210;19;20405;-48
2021/11/09 11:52:33;;;;;;;17.93;4.60;;;;;;;9.97;100.00;102056.69;7399943;19;20868;-47
2021/11/09 11:55:12;;;;;;;17.83;7.10;;;;;;;10.06;100.00;102062.41;7406400;19;20396;-51
2021/11/09 11:57:50;;;;;;;11.43;3.43;;;;;;;10.01;100.00;102063.84;7398489;19;20890;-47
2021/11/09 12:00:51;;;;;;;15.53;6.97;;;;;;;10.20;100.00;102057.28;7403914;19;20436;-46
2021/11/09 12:03:37;;;;;;;18.13;4.83;;;;;;;10.10;100.00;102059.25;7394777;19;20414;-46
2021/11/09 12:06:26;;;;;;;20.00;5.53;;;;;;;10.04;100.00;102051.13;7401754;19;20463;-47
2021/11/09 12:08:57;;;;;;;19.07;6.40;;;;;;;10.11;100.00;102052.41;7397488;19;20417;-49
2021/11/09 12:11:41;;;;;;;18.63;5.57;;;;;;;10.21;100.00;102051.31;7405443;19;20396;-46
2021/11/09 12:14:19;;;;;;;20.30;6.23;;;;;;;10.18;100.00;102057.19;7401402;19;20423;-46
2021/11/09 12:17:00;;;;;;;24.57;6.80;;;;;;;10.39;100.00;102049.91;7396845;19;20705;-47
2021/11/09 12:19:53;;;;;;;17.90;4.90;;;;;;;10.31;100.00;102058.84;7403008;19;20390;-45
2021/11/09 12:22:25;;;;;;;11.37;4.93;;;;;;;10.29;100.00;102050.13;7397704;19;20487;-49
2021/11/09 12:24:58;;;;;;;22.90;6.10;;;;;;;10.42;100.00;102056.97;7402758;19;20838;-46
2021/11/09 12:28:08;;;;;;;20.03;6.33;;;;;;;10.70;100.00;102050.06;7395691;19;20494;-49
2021/11/09 12:30:52;;;;;;;16.83;4.03;;;;;;;10.80;100.00;102060.16;7402323;19;20398;-50
2021/11/09 12:33:23;;;;;;;14.07;4.70;;;;;;;10.63;100.00;102065.19;7397154;19;20431;-46
2021/11/09 12:36:23;;;;;;;17.43;4.73;;;;;;;10.80;100.00;102053.31;7403186;19;20812;-46
2021/11/09 12:38:55;;;;;;;11.80;4.20;;;;;;;10.89;100.00;102055.59;7399018;19;20491;-51
2021/11/09 12:41:27;;;;;;;14.00;6.03;;;;;;;11.12;100.00;102063.81;7401157;19;20388;-45
2021/11/09 12:44:00;;;;;;;17.47;5.73;;;;;;;11.10;100.00;102062.84;7394721;19;20435;-48
2021/11/09 12:46:34;;;;;;;16.13;4.67;;;;;;;10.99;100.00;102057.03;7403802;19;20848;-46
2021/11/09 12:49:05;;;;;;;17.47;5.50;;;;;;;11.14;100.00;102046.75;7401499;19;20711;-46
2021/11/09 12:51:42;;;;;;;30.07;10.30;;;;;;;11.33;100.00;102045.22;7399028;19;20388;-48
2021/11/09 12:54:12;;;;;;;19.63;4.60;;;;;;;11.28;100.00;102052.72;7404426;19;20410;-49
2021/11/09 12:56:48;;;;;;;22.30;9.43;;;;;;;11.63;100.00;102040.06;7395486;19;20679;-51
2021/11/09 12:59:28;;;;;;;14.03;5.53;;;;;;;11.84;100.00;102044.72;7402024;19;20456;-46
2021/11/09 13:02:06;;;;;;;11.97;5.27;;;;;;;11.47;100.00;102044.38;7394325;19;20499;-49
2021/11/09 13:04:45;;;;;;;14.63;5.70;;;;;;;11.62;100.00;102051.22;7402212;19;20383;-49
2021/11/09 13:07:19;;;;;;;18.73;6.47;;;;;;;11.36;100.00;102042.84;7398693;19;20406;-51
2021/11/09 13:09:53;;;;;;;18.37;5.50;;;;;;;11.29;100.00;102045.88;7404421;19;20408;-49
2021/11/09 13:12:25;;;;;;;21.33;6.67;;;;;;;11.72;100.00;102048.38;7393707;19;20706;-48
2021/11/09 13:15:00;;;;;;;15.27;5.93;;;;;;;11.65;100.00;102041.09;7405310;19;20417;-45
2021/11/09 13:17:40;;;;;;;14.80;5.77;;;;;;;11.77;100.00;102039.97;7394614;19;20434;-45